METAR AND TAF INFORMATION
METAR FOR KSAN
KSAN 230551Z 00000KT 10SM FEW010 21/18 A2988 RMK AO2 SLP117 T02110178 10250 20211 51004 $
KSAN 230451Z 20004KT 10SM SCT010 21/18 A2988 RMK AO2 SLP117 T02110178 $
KSAN 230430Z 20005KT 10SM SCT011 21/18 A2988 RMK AO2 T02110178 $
KSAN 230351Z VRB04KT 10SM BKN011 22/18 A2988 RMK AO2 SLP117 T02170178 $
KSAN 230520Z 2306/2412 VRB04KT P6SM SCT011
FM230800 VRB04KT P6SM BKN010
FM231800 27006KT P6SM SCT010
FM232000 25008KT P6SM SCT150
FM240200 VRB04KT P6SM SCT010
FM240900 VRB04KT P6SM BKN010

 AIRPORT MAP

 RUNWAY INFORMATION
Runway 09 Runway length 9401 ft Runway width 200 ft
Runway elevation 14 ft Runway displaced threshold 700 ft Runway heading 106
Runway 27 Runway length 9401 ft Runway width 200 ft
Runway elevation 13 ft Runway displaced threshold 1810 ft Runway heading 286

 AIRPORT FREQUENCIES
Type A/D Name SOCAL APP/ Frequency 119.6 MHZ
Type ATIS Name ATIS Frequency 134.8 MHZ
Type CLD Name CLNC DEL Frequency 125.9 MHZ
Type GND Name GND Frequency 123.9 MHZ
Type MISC Name CG Frequency 157.15 MHZ
Type MISC Name CG Frequency 898.4 MHZ
Type TWR Name LINDBERGH Frequency 118.3 MHZ
Type UNIC Name UNICOM Frequency 122.95 MHZ

 AIRPORT NEAR NAVIGATION AIDS
Type NDB Name Boing Frequency 245 KHZ

-